createdAt,value
2023-01-15T00:00:03.814Z,11.90
2023-01-15T00:02:32.705Z,6.60
2023-01-15T00:05:03.074Z,8.00
2023-01-15T00:07:33.095Z,3.67
2023-01-15T00:10:01.106Z,6.70
2023-01-15T00:12:29.113Z,10.20
2023-01-15T00:14:58.424Z,8.93
2023-01-15T00:17:27.015Z,9.10
2023-01-15T00:19:54.964Z,5.60
2023-01-15T00:22:22.849Z,5.43
2023-01-15T00:25:06.013Z,4.73
2023-01-15T00:27:40.005Z,3.70
2023-01-15T00:30:10.584Z,3.00
2023-01-15T00:32:38.483Z,3.67
2023-01-15T00:35:07.595Z,2.83
2023-01-15T00:37:35.543Z,1.77
2023-01-15T00:40:05.436Z,3.10
2023-01-15T00:42:33.357Z,4.90
2023-01-15T00:45:07.622Z,3.00
2023-01-15T00:47:35.671Z,4.77
2023-01-15T00:50:03.997Z,2.07
2023-01-15T00:52:31.941Z,2.80
2023-01-15T00:54:59.962Z,1.67
2023-01-15T00:57:29.475Z,2.77
2023-01-15T00:59:57.401Z,3.47
2023-01-15T01:02:25.447Z,2.17
2023-01-15T01:04:54.273Z,2.40
2023-01-15T01:07:22.193Z,8.73
2023-01-15T01:09:50.256Z,3.53
2023-01-15T01:12:18.179Z,4.10
2023-01-15T01:14:47.544Z,1.70
2023-01-15T01:17:15.477Z,2.13
2023-01-15T01:19:43.437Z,2.80
2023-01-15T01:22:11.332Z,1.70
2023-01-15T01:24:39.260Z,2.17
2023-01-15T01:27:07.161Z,2.23
2023-01-15T01:29:35.048Z,2.50
2023-01-15T01:32:04.423Z,3.30
2023-01-15T01:34:33.545Z,2.20
2023-01-15T01:37:01.478Z,4.07
2023-01-15T01:39:29.530Z,2.17
2023-01-15T01:41:57.465Z,3.10
2023-01-15T01:45:01.250Z,1.90
2023-01-15T01:47:32.222Z,3.20
2023-01-15T01:50:04.230Z,1.83
2023-01-15T01:52:38.178Z,2.70
2023-01-15T01:55:07.787Z,2.17
2023-01-15T01:57:36.536Z,2.77
2023-01-15T02:00:06.880Z,2.33
2023-01-15T02:02:37.096Z,3.77
2023-01-15T02:05:06.637Z,5.30
2023-01-15T02:07:35.231Z,2.50
2023-01-15T02:10:03.309Z,1.80
2023-01-15T02:12:36.696Z,3.30
2023-01-15T02:15:10.174Z,3.97
2023-01-15T02:17:47.669Z,3.20
2023-01-15T02:20:28.776Z,2.90
2023-01-15T02:23:14.695Z,2.10
2023-01-15T02:26:04.017Z,2.90
2023-01-15T02:28:37.170Z,2.90
2023-01-15T02:31:15.110Z,4.30
2023-01-15T02:33:47.932Z,2.77
2023-01-15T02:36:19.604Z,3.93
2023-01-15T02:38:50.520Z,2.23
2023-01-15T02:41:22.356Z,2.23
2023-01-15T02:43:55.105Z,4.20
2023-01-15T02:46:26.570Z,3.40
2023-01-15T02:48:57.033Z,2.23
2023-01-15T02:51:29.642Z,1.87
2023-01-15T02:54:02.084Z,3.03
2023-01-15T02:56:35.992Z,3.70
2023-01-15T02:59:08.944Z,2.33
2023-01-15T03:01:42.327Z,1.90
2023-01-15T03:04:16.746Z,2.50
2023-01-15T03:06:49.289Z,6.37
2023-01-15T03:09:18.524Z,3.37
2023-01-15T03:11:51.431Z,2.00
2023-01-15T03:14:26.699Z,2.90
2023-01-15T03:16:59.176Z,2.00
2023-01-15T03:19:30.238Z,28.97
2023-01-15T03:22:02.953Z,6.70
2023-01-15T03:24:38.361Z,3.40
2023-01-15T03:27:06.909Z,3.37
2023-01-15T03:29:38.983Z,2.23
2023-01-15T03:32:07.755Z,2.20
2023-01-15T03:34:41.363Z,2.80
2023-01-15T03:37:09.712Z,2.20
2023-01-15T03:39:37.797Z,4.00
2023-01-15T03:42:17.142Z,2.00
2023-01-15T03:44:54.378Z,3.10
2023-01-15T03:47:34.249Z,7.00
2023-01-15T03:50:08.018Z,2.63
2023-01-15T03:52:44.584Z,2.77
2023-01-15T03:55:16.681Z,2.47
2023-01-15T03:57:50.811Z,3.30
2023-01-15T04:00:24.652Z,3.43
2023-01-15T04:02:55.361Z,4.77
2023-01-15T04:05:24.669Z,2.27
2023-01-15T04:07:54.048Z,2.70
2023-01-15T04:10:21.994Z,3.40
2023-01-15T04:12:49.905Z,3.23
2023-01-15T04:15:20.223Z,2.00
2023-01-15T04:17:48.205Z,2.30
2023-01-15T04:20:16.445Z,3.57
2023-01-15T04:22:44.392Z,2.30
2023-01-15T04:25:13.144Z,4.33
2023-01-15T04:27:41.038Z,2.20
2023-01-15T04:30:10.277Z,2.23
2023-01-15T04:32:39.524Z,2.90
2023-01-15T04:35:07.976Z,2.47
2023-01-15T04:37:35.879Z,5.53
2023-01-15T04:40:03.955Z,4.17
2023-01-15T04:42:50.632Z,3.50
2023-01-15T04:45:18.585Z,2.80
2023-01-15T04:47:47.851Z,2.20
2023-01-15T04:50:15.904Z,2.53
2023-01-15T04:52:43.787Z,3.10
2023-01-15T04:55:11.749Z,2.43
2023-01-15T04:57:39.670Z,2.07
2023-01-15T05:00:09.133Z,3.07
2023-01-15T05:02:37.151Z,4.87
2023-01-15T05:05:07.184Z,2.43
2023-01-15T05:07:35.094Z,2.30
2023-01-15T05:10:04.407Z,2.80
2023-01-15T05:12:32.541Z,2.73
2023-01-15T05:15:00.590Z,2.17
2023-01-15T05:17:28.760Z,5.87
2023-01-15T05:19:56.682Z,10.33
2023-01-15T05:22:26.419Z,8.10
2023-01-15T05:24:54.459Z,9.10
2023-01-15T05:27:22.403Z,11.73
2023-01-15T05:29:50.303Z,3.47
2023-01-15T05:32:18.163Z,10.30
2023-01-15T05:34:46.060Z,8.00
2023-01-15T05:37:13.971Z,7.97
2023-01-15T05:39:43.271Z,6.20
2023-01-15T05:42:11.316Z,5.83
2023-01-15T05:44:39.751Z,6.13
2023-01-15T05:47:07.770Z,6.63
2023-01-15T05:49:35.808Z,7.27
2023-01-15T05:52:04.241Z,7.47
2023-01-15T05:54:34.480Z,3.20
2023-01-15T05:57:04.813Z,9.03
2023-01-15T05:59:34.081Z,8.23
2023-01-15T06:02:02.249Z,6.43
2023-01-15T06:04:31.441Z,4.10
2023-01-15T06:06:59.688Z,4.93
2023-01-15T06:09:29.453Z,16.53
2023-01-15T06:11:57.708Z,10.20
2023-01-15T06:14:27.046Z,16.27
2023-01-15T06:16:55.091Z,14.03
2023-01-15T06:19:22.998Z,5.27
2023-01-15T06:21:50.953Z,7.07
2023-01-15T06:24:20.015Z,6.07
2023-01-15T06:26:48.092Z,3.03
2023-01-15T06:29:18.756Z,8.10
2023-01-15T06:31:49.530Z,6.57
2023-01-15T06:34:17.771Z,3.37
2023-01-15T06:36:45.690Z,3.90
2023-01-15T06:39:13.714Z,5.10
2023-01-15T06:41:58.921Z,5.23
2023-01-15T06:44:44.497Z,3.93
2023-01-15T06:47:23.441Z,8.40
2023-01-15T06:49:53.978Z,9.70
2023-01-15T06:52:22.112Z,8.20
2023-01-15T06:54:50.030Z,5.30
2023-01-15T06:57:18.839Z,11.70
2023-01-15T06:59:46.931Z,10.67
2023-01-15T07:02:17.768Z,8.63
2023-01-15T07:04:45.779Z,6.30
2023-01-15T07:07:14.631Z,6.83
2023-01-15T07:09:42.736Z,4.33
2023-01-15T07:12:10.651Z,4.67
2023-01-15T07:14:38.853Z,7.40
2023-01-15T07:17:06.922Z,5.30
2023-01-15T07:19:36.242Z,9.30
2023-01-15T07:22:04.361Z,6.77
2023-01-15T07:24:32.564Z,7.03
2023-01-15T07:27:00.820Z,9.40
2023-01-15T07:29:30.712Z,7.60
2023-01-15T07:31:59.431Z,7.73
2023-01-15T07:34:27.396Z,14.67
2023-01-15T07:36:56.688Z,13.93
2023-01-15T07:39:24.612Z,9.27
2023-01-15T07:42:09.815Z,9.83
2023-01-15T07:44:55.500Z,8.33
2023-01-15T07:47:43.207Z,10.30
2023-01-15T07:50:13.743Z,16.87
2023-01-15T07:52:43.181Z,18.70
2023-01-15T07:55:12.655Z,12.57
2023-01-15T07:57:41.106Z,12.10
2023-01-15T08:00:12.210Z,9.00
2023-01-15T08:02:40.659Z,17.17
2023-01-15T08:05:11.585Z,21.80
2023-01-15T08:07:40.114Z,20.90
2023-01-15T08:10:11.295Z,15.83
2023-01-15T08:12:57.681Z,13.17
2023-01-15T08:15:25.892Z,12.53
2023-01-15T08:17:54.506Z,11.57
2023-01-15T08:20:26.198Z,13.20
2023-01-15T08:22:54.836Z,12.60
2023-01-15T08:25:26.306Z,10.00
2023-01-15T08:27:54.936Z,10.53
2023-01-15T08:30:25.123Z,19.07
2023-01-15T08:32:54.351Z,13.83
2023-01-15T08:35:22.281Z,20.17
2023-01-15T08:37:50.210Z,21.67
2023-01-15T08:40:18.629Z,23.13
2023-01-15T08:42:48.135Z,21.17
2023-01-15T08:45:16.126Z,22.13
2023-01-15T08:47:44.032Z,20.27
2023-01-15T08:50:12.723Z,24.33
2023-01-15T08:52:41.048Z,19.73
2023-01-15T08:55:09.608Z,21.20
2023-01-15T08:57:38.503Z,27.50
2023-01-15T09:00:09.561Z,20.70
2023-01-15T09:02:37.468Z,14.50
2023-01-15T09:05:06.103Z,11.33
2023-01-15T09:07:35.324Z,11.63
2023-01-15T09:10:04.412Z,13.87
2023-01-15T09:12:32.840Z,71.83
2023-01-15T09:15:03.318Z,31.13
2023-01-15T09:17:40.478Z,21.83
2023-01-15T09:20:11.310Z,27.87
2023-01-15T09:22:39.285Z,22.00
2023-01-15T09:25:08.407Z,33.00
2023-01-15T09:27:37.807Z,27.00
2023-01-15T09:30:07.112Z,16.87
2023-01-15T09:32:37.961Z,16.37
2023-01-15T09:35:06.372Z,16.13
2023-01-15T09:37:34.824Z,14.57
2023-01-15T09:40:04.133Z,26.10
2023-01-15T09:42:44.928Z,28.67
2023-01-15T09:45:21.602Z,17.90
2023-01-15T09:48:18.317Z,21.77
2023-01-15T09:51:01.255Z,21.63
2023-01-15T09:53:55.274Z,20.20
2023-01-15T09:56:28.222Z,13.07
2023-01-15T09:59:00.753Z,13.57
2023-01-15T10:01:32.502Z,13.07
2023-01-15T10:04:06.691Z,15.40
2023-01-15T10:06:40.739Z,15.63
2023-01-15T10:09:15.651Z,11.40
2023-01-15T10:12:04.458Z,14.63
2023-01-15T10:14:41.367Z,12.60
2023-01-15T10:17:23.623Z,14.03
2023-01-15T10:19:53.544Z,13.13
2023-01-15T10:22:33.461Z,13.73
2023-01-15T10:25:06.475Z,13.10
2023-01-15T10:27:36.519Z,15.20
2023-01-15T10:30:14.560Z,11.70
2023-01-15T10:33:01.600Z,10.57
2023-01-15T10:35:41.968Z,10.40
2023-01-15T10:38:17.156Z,17.93
2023-01-15T10:41:06.425Z,11.80
2023-01-15T10:43:44.484Z,15.60
2023-01-15T10:46:15.228Z,17.20
2023-01-15T10:48:46.690Z,13.67
2023-01-15T10:51:19.985Z,12.80
2023-01-15T10:53:53.012Z,25.20
2023-01-15T10:56:32.655Z,20.27
2023-01-15T10:59:09.591Z,31.47
2023-01-15T11:01:39.760Z,27.10
2023-01-15T11:04:10.168Z,12.50
2023-01-15T11:06:39.490Z,33.67
2023-01-15T11:09:10.907Z,26.67
2023-01-15T11:12:01.844Z,32.47
2023-01-15T11:14:55.575Z,15.40
2023-01-15T11:17:39.376Z,11.83
2023-01-15T11:20:19.713Z,16.70
2023-01-15T11:22:49.481Z,14.17
2023-01-15T11:25:28.505Z,10.33
2023-01-15T11:27:57.071Z,13.20
2023-01-15T11:30:31.732Z,14.97
2023-01-15T11:33:03.957Z,15.27
2023-01-15T11:35:32.570Z,13.60
2023-01-15T11:38:06.795Z,16.40
2023-01-15T11:40:35.326Z,19.33
2023-01-15T11:43:21.020Z,17.40
2023-01-15T11:46:07.863Z,12.10
2023-01-15T11:49:02.192Z,44.27
2023-01-15T11:51:31.567Z,13.43
2023-01-15T11:54:05.617Z,12.00
2023-01-15T11:56:35.501Z,13.43
2023-01-15T11:59:10.049Z,14.47
2023-01-15T12:01:43.355Z,16.13
2023-01-15T12:04:31.003Z,13.40
2023-01-15T12:07:00.421Z,13.97
2023-01-15T12:09:43.847Z,19.23
2023-01-15T12:12:20.079Z,21.27
2023-01-15T12:15:01.488Z,17.77
2023-01-15T12:17:51.796Z,19.70
2023-01-15T12:20:28.788Z,28.70
2023-01-15T12:23:18.254Z,21.20
2023-01-15T12:25:55.068Z,12.60
2023-01-15T12:28:28.049Z,12.97
2023-01-15T12:31:01.663Z,15.23
2023-01-15T12:33:41.877Z,13.97
2023-01-15T12:36:15.452Z,14.17
2023-01-15T12:38:50.914Z,9.90
2023-01-15T12:41:24.992Z,12.50
2023-01-15T12:44:15.407Z,11.13
2023-01-15T12:46:45.786Z,15.40
2023-01-15T12:49:29.222Z,10.93
2023-01-15T12:52:05.931Z,12.87
2023-01-15T12:54:40.181Z,12.97
2023-01-15T12:57:18.022Z,11.63
2023-01-15T12:59:49.893Z,14.50
2023-01-15T13:02:22.918Z,13.13
2023-01-15T13:04:53.051Z,12.00
2023-01-15T13:07:28.051Z,12.23
2023-01-15T13:10:06.947Z,16.93
2023-01-15T13:12:36.560Z,10.37
2023-01-15T13:15:06.303Z,65.40
2023-01-15T13:17:40.689Z,20.37
2023-01-15T13:20:38.079Z,11.30
2023-01-15T13:23:16.587Z,11.33
2023-01-15T13:26:11.312Z,11.63
2023-01-15T13:28:53.010Z,16.70
2023-01-15T13:31:46.056Z,16.53
2023-01-15T13:34:20.303Z,12.70
2023-01-15T13:36:50.208Z,18.60
2023-01-15T13:39:23.240Z,18.23
2023-01-15T13:42:11.773Z,12.10
2023-01-15T13:44:49.042Z,12.47
2023-01-15T13:47:21.578Z,17.30
2023-01-15T13:49:53.658Z,11.60
2023-01-15T13:52:25.971Z,14.73
2023-01-15T13:54:55.751Z,14.00
2023-01-15T13:57:32.869Z,13.10
2023-01-15T14:00:04.415Z,14.07
2023-01-15T14:02:34.780Z,12.97
2023-01-15T14:05:14.994Z,11.73
2023-01-15T14:07:42.978Z,15.90
2023-01-15T14:10:24.582Z,15.93
2023-01-15T14:13:07.956Z,16.33
2023-01-15T14:15:49.069Z,13.77
2023-01-15T14:18:31.117Z,13.03
2023-01-15T14:21:15.484Z,13.20
2023-01-15T14:24:09.187Z,13.87
2023-01-15T14:26:48.753Z,16.10
2023-01-15T14:29:50.667Z,17.20
2023-01-15T14:32:29.599Z,14.10
2023-01-15T14:34:59.930Z,19.67
2023-01-15T14:37:31.665Z,21.57
2023-01-15T14:40:02.424Z,17.17
2023-01-15T14:42:50.797Z,17.00
2023-01-15T14:45:26.852Z,9.30
2023-01-15T14:47:57.641Z,11.97
2023-01-15T14:50:42.022Z,1.87
2023-01-15T14:53:28.238Z,1.60
2023-01-15T14:56:00.569Z,2.70
2023-01-15T14:58:40.034Z,2.00
2023-01-15T15:01:18.693Z,2.03
2023-01-15T15:03:54.304Z,1.57
2023-01-15T15:06:22.737Z,1.60
2023-01-15T15:08:53.352Z,1.20
2023-01-15T15:11:47.003Z,1.20
2023-01-15T15:14:16.791Z,2.23
2023-01-15T15:16:48.680Z,2.17
2023-01-15T15:19:27.793Z,1.77
2023-01-15T15:21:58.650Z,1.70
2023-01-15T15:24:30.836Z,1.63
2023-01-15T15:26:58.915Z,3.00
2023-01-15T15:29:26.828Z,2.77
2023-01-15T15:31:58.195Z,5.20
2023-01-15T15:34:29.836Z,4.73
2023-01-15T15:37:01.562Z,3.70
2023-01-15T15:39:36.623Z,5.60
2023-01-15T15:42:29.946Z,1.87
2023-01-15T15:45:18.613Z,3.40
2023-01-15T15:48:04.278Z,8.83
2023-01-15T15:50:35.708Z,1.77
2023-01-15T15:53:04.543Z,2.30
2023-01-15T15:55:39.751Z,5.33
2023-01-15T15:58:09.059Z,3.60
2023-01-15T16:00:41.636Z,4.40
2023-01-15T16:03:19.809Z,4.47
2023-01-15T16:05:58.879Z,2.33
2023-01-15T16:08:28.385Z,4.60
2023-01-15T16:10:59.456Z,6.77
2023-01-15T16:13:30.687Z,3.03
2023-01-15T16:16:00.620Z,2.90
2023-01-15T16:18:33.647Z,1.67
2023-01-15T16:21:03.214Z,2.40
2023-01-15T16:23:32.174Z,2.43
2023-01-15T16:26:04.615Z,7.67
2023-01-15T16:28:40.068Z,5.37
2023-01-15T16:31:08.647Z,3.13
2023-01-15T16:33:38.308Z,1.50
2023-01-15T16:36:08.982Z,2.53
2023-01-15T16:38:41.123Z,2.57
2023-01-15T16:41:19.880Z,2.30
2023-01-15T16:43:54.512Z,1.47
2023-01-15T16:46:24.984Z,5.13
2023-01-15T16:49:21.318Z,1.43
2023-01-15T16:51:51.052Z,2.90
2023-01-15T16:54:46.483Z,1.30
2023-01-15T16:57:35.263Z,2.20
2023-01-15T17:00:07.987Z,3.53
2023-01-15T17:02:44.214Z,1.83
2023-01-15T17:05:25.577Z,1.63
2023-01-15T17:07:56.254Z,11.50
2023-01-15T17:10:26.993Z,5.07
2023-01-15T17:12:57.065Z,3.43
2023-01-15T17:15:46.196Z,3.47
2023-01-15T17:18:25.845Z,4.80
2023-01-15T17:20:53.885Z,7.23
2023-01-15T17:23:30.822Z,5.50
2023-01-15T17:25:59.328Z,6.07
2023-01-15T17:28:27.546Z,3.33
2023-01-15T17:31:01.013Z,9.87
2023-01-15T17:33:29.302Z,4.50
2023-01-15T17:36:00.591Z,4.17
2023-01-15T17:38:29.931Z,9.70
2023-01-15T17:41:00.574Z,3.63
2023-01-15T17:43:28.562Z,3.10
2023-01-15T17:45:56.486Z,2.17
2023-01-15T17:48:24.635Z,3.03
2023-01-15T17:50:54.469Z,5.23
2023-01-15T17:53:22.470Z,5.97
2023-01-15T17:56:09.541Z,4.40
2023-01-15T17:58:55.135Z,3.93
2023-01-15T18:01:44.156Z,2.20
2023-01-15T18:04:36.832Z,3.27
2023-01-15T18:07:05.509Z,7.80
2023-01-15T18:09:35.843Z,13.17
2023-01-15T18:41:36.762Z,2.23
2023-01-15T18:44:23.601Z,3.70
2023-01-15T18:46:53.876Z,1.50
2023-01-15T18:49:22.168Z,3.60
2023-01-15T18:52:12.756Z,2.53
2023-01-15T18:54:40.748Z,3.83
2023-01-15T18:57:10.080Z,4.10
2023-01-15T18:59:38.146Z,6.83
2023-01-15T19:02:07.374Z,2.80
2023-01-15T19:04:35.471Z,10.30
2023-01-15T19:07:03.718Z,11.47
2023-01-15T19:09:31.991Z,3.10
2023-01-15T19:12:00.342Z,3.07
2023-01-15T19:14:47.338Z,3.50
2023-01-15T19:17:34.259Z,3.67
2023-01-15T19:20:02.426Z,1.80
2023-01-15T19:22:48.548Z,1.90
2023-01-15T19:25:17.653Z,3.23
2023-01-15T19:27:47.865Z,3.47
2023-01-15T19:30:17.785Z,1.73
2023-01-15T19:32:46.038Z,2.00
2023-01-15T19:35:14.157Z,2.80
2023-01-15T19:37:44.184Z,1.60
2023-01-15T19:40:14.800Z,1.40
2023-01-15T19:43:00.640Z,2.27
2023-01-15T19:45:47.374Z,1.57
2023-01-15T19:48:35.810Z,1.90
2023-01-15T19:51:04.039Z,2.40
2023-01-15T19:53:31.969Z,2.43
2023-01-15T19:56:00.044Z,1.30
2023-01-15T19:58:28.025Z,1.40
2023-01-15T20:00:57.346Z,1.33
2023-01-15T20:03:25.307Z,4.10
2023-01-15T20:05:53.308Z,2.43
2023-01-15T20:08:21.269Z,3.37
2023-01-15T20:10:51.488Z,2.43
2023-01-15T20:13:39.833Z,1.73
2023-01-15T20:16:11.464Z,1.10
2023-01-15T20:18:39.865Z,4.57
2023-01-15T20:21:08.723Z,6.87
2023-01-15T20:23:37.311Z,1.87
2023-01-15T20:26:07.304Z,2.17
2023-01-15T20:28:35.935Z,4.57
2023-01-15T20:31:04.669Z,4.13
2023-01-15T20:33:34.318Z,1.83
2023-01-15T20:36:03.987Z,2.27
2023-01-15T20:38:32.182Z,2.40
2023-01-15T20:41:21.085Z,1.70
2023-01-15T20:44:06.337Z,3.73
2023-01-15T20:46:34.300Z,1.37
2023-01-15T20:49:21.214Z,3.93
2023-01-15T20:51:49.916Z,3.30
2023-01-15T20:54:17.868Z,3.10
2023-01-15T20:56:46.207Z,6.93
2023-01-15T20:59:14.229Z,4.00
2023-01-15T21:01:42.260Z,2.30
2023-01-15T21:04:13.581Z,1.97
2023-01-15T21:06:41.599Z,1.80
2023-01-15T21:09:09.533Z,3.23
2023-01-15T21:11:37.430Z,4.23
2023-01-15T21:14:05.521Z,1.13
2023-01-15T21:16:33.537Z,1.33
2023-01-15T21:19:04.359Z,1.40
2023-01-15T21:21:33.618Z,2.00
2023-01-15T21:24:02.151Z,1.20
2023-01-15T21:26:30.924Z,1.30
2023-01-15T21:28:59.204Z,1.20
2023-01-15T21:31:27.193Z,3.60
2023-01-15T21:33:55.767Z,2.57
2023-01-15T21:36:24.383Z,2.03
2023-01-15T21:38:54.458Z,1.47
2023-01-15T21:41:44.782Z,1.90
2023-01-15T21:44:31.832Z,1.77
2023-01-15T21:47:00.926Z,1.53
2023-01-15T21:49:31.525Z,3.57
2023-01-15T21:51:59.734Z,2.03
2023-01-15T21:54:29.490Z,1.53
2023-01-15T21:56:58.083Z,1.80
2023-01-15T21:59:26.483Z,1.57
2023-01-15T22:01:55.239Z,2.33
2023-01-15T22:04:24.422Z,2.30
2023-01-15T22:06:52.559Z,1.63
2023-01-15T22:09:20.813Z,4.23
2023-01-15T22:11:52.259Z,2.53
2023-01-15T22:14:24.537Z,3.10
2023-01-15T22:16:54.390Z,2.47
2023-01-15T22:19:23.955Z,4.57
2023-01-15T22:21:52.802Z,3.53
2023-01-15T22:24:21.214Z,1.80
2023-01-15T22:26:54.345Z,4.50
2023-01-15T22:29:23.086Z,3.03
2023-01-15T22:31:51.247Z,2.93
2023-01-15T22:34:21.250Z,1.67
2023-01-15T22:36:49.392Z,2.30
2023-01-15T22:39:17.731Z,1.40
2023-01-15T22:42:03.020Z,1.27
2023-01-15T22:44:33.481Z,2.30
2023-01-15T22:47:02.306Z,2.00
2023-01-15T22:49:30.644Z,4.00
2023-01-15T22:51:58.627Z,2.60
2023-01-15T22:54:26.568Z,2.60
2023-01-15T22:56:54.478Z,2.80
2023-01-15T22:59:22.438Z,2.67
2023-01-15T23:01:51.755Z,3.43
2023-01-15T23:04:22.827Z,2.90
2023-01-15T23:06:52.162Z,1.83
2023-01-15T23:09:21.349Z,3.27
2023-01-15T23:11:51.204Z,6.63
2023-01-15T23:14:20.439Z,2.57
2023-01-15T23:16:48.437Z,2.43
2023-01-15T23:19:18.654Z,3.40
2023-01-15T23:21:46.576Z,2.90
2023-01-15T23:24:14.588Z,2.20
2023-01-15T23:26:43.911Z,2.13
2023-01-15T23:29:11.818Z,5.33
2023-01-15T23:31:39.760Z,4.73
2023-01-15T23:34:07.734Z,4.60
2023-01-15T23:36:37.467Z,2.30
2023-01-15T23:39:05.519Z,2.10
2023-01-15T23:41:47.344Z,2.93
2023-01-15T23:44:34.678Z,4.80
2023-01-15T23:47:02.946Z,2.90
2023-01-15T23:49:30.881Z,2.67
2023-01-15T23:52:00.498Z,2.90
2023-01-15T23:54:29.986Z,4.23
2023-01-15T23:56:58.882Z,1.90
2023-01-15T23:59:27.442Z,2.30
